tititudorancea.com
Station Historical Data
Daily Summary for Nil La, TWC- Units:  Both    English   Metric
« Previous Day
Next Day »
Daily Weekly Monthly Yearly Custom
  High: Low: Average:
Temperature: TemperatureF °F /  -17.8 °C 51.7 °F /  10.9 °C 64.7 °F /  18.2 °C
Dew Point: DewpointF °F /  -17.8 °C 48.5 °F /  9.2 °C 50.8 °F /  10.4 °C
Humidity: Humidity % 28 % 66 %
Wind Speed: WindSpeedMPH mph /  0 km/h - 6.9 mph /  11.1 km/h
Wind Gust: WindSpeedGustMPH mph /  0 km/h - -
Wind:- - SE
Pressure: PressureIn in /  0 hPa 30.14 in /  1020.5 hPa -
Precipitation: 0.00 in /  0 mm    
Historical Graphs
 
 
Ararat weather Find more about Weather in Ararat, AU


 



 


Tabular Data for Nil La, TWC-
Time Temperature Dew Point Pressure Wind Wind Speed Wind Gust Humidity Rainfall Rate (Hourly)
TemperatureF °F /  -17.8 °C DewpointF °F /  -17.8 °C PressureIn in /  0 hPa Calm     Humidity % HourlyPrecipIn in /  0 mm
00:04 63.9 °F /  17.7 °C 53.9 °F /  12.2 °C 30.16 in /  1021.2 hPa SE 8.1 mph /  13 km/h 3.2 mph /  5.1 km/h 70 % 0.00 in /  0 mm
00:09 63.8 °F /  17.7 °C 53.8 °F /  12.1 °C 30.16 in /  1021.2 hPa SE 9.2 mph /  14.8 km/h 4.8 mph /  7.7 km/h 70 % 0.00 in /  0 mm
00:14 63.7 °F /  17.6 °C 53.7 °F /  12.1 °C 30.16 in /  1021.2 hPa SE 8.1 mph /  13 km/h 4.3 mph /  6.9 km/h 70 % 0.00 in /  0 mm
00:19 63.7 °F /  17.6 °C 53.7 °F /  12.1 °C 30.16 in /  1021.2 hPa SE 6.9 mph /  11.1 km/h 2.7 mph /  4.3 km/h 70 % 0.00 in /  0 mm
00:24 63.6 °F /  17.6 °C 53.6 °F /  12 °C 30.16 in /  1021.2 hPa SE 5.0 mph /  8 km/h 4.6 mph /  7.4 km/h 70 % 0.00 in /  0 mm
00:29 63.5 °F /  17.5 °C 53.5 °F /  11.9 °C 30.16 in /  1021.2 hPa SE 10.4 mph /  16.7 km/h 6.1 mph /  9.8 km/h 70 % 0.00 in /  0 mm
00:34 63.3 °F /  17.4 °C 53.3 °F /  11.8 °C 30.16 in /  1021.2 hPa SE 9.2 mph /  14.8 km/h 4.0 mph /  6.4 km/h 70 % 0.00 in /  0 mm
00:39 63.2 °F /  17.3 °C 53.3 °F /  11.8 °C 30.16 in /  1021.2 hPa SE 5.0 mph /  8 km/h 3.2 mph /  5.1 km/h 70 % 0.00 in /  0 mm
00:44 63.1 °F /  17.3 °C 53.2 °F /  11.8 °C 30.16 in /  1021.2 hPa SSE 6.9 mph /  11.1 km/h 5.0 mph /  8 km/h 70 % 0.00 in /  0 mm
00:49 63.1 °F /  17.3 °C 53.2 °F /  11.8 °C 30.16 in /  1021.2 hPa SSE 6.0 mph /  9.7 km/h 4.2 mph /  6.8 km/h 70 % 0.00 in /  0 mm
00:54 63.0 °F /  17.2 °C 53.1 °F /  11.7 °C 30.16 in /  1021.2 hPa SSE 6.9 mph /  11.1 km/h 3.2 mph /  5.1 km/h 70 % 0.00 in /  0 mm
00:59 62.8 °F /  17.1 °C 53.3 °F /  11.8 °C 30.16 in /  1021.2 hPa SSE 4.6 mph /  7.4 km/h 3.2 mph /  5.1 km/h 71 % 0.00 in /  0 mm
01:04 62.6 °F /  17 °C 53.1 °F /  11.7 °C 30.16 in /  1021.2 hPa SSE 6.9 mph /  11.1 km/h 4.1 mph /  6.6 km/h 71 % 0.00 in /  0 mm
01:09 62.5 °F /  16.9 °C 53.0 °F /  11.7 °C 30.15 in /  1020.9 hPa SSE 6.0 mph /  9.7 km/h 5.3 mph /  8.5 km/h 71 % 0.00 in /  0 mm
01:14 62.4 °F /  16.9 °C 52.9 °F /  11.6 °C 30.15 in /  1020.9 hPa SSE 6.9 mph /  11.1 km/h 5.2 mph /  8.4 km/h 71 % 0.00 in /  0 mm
01:19 62.3 °F /  16.8 °C 52.8 °F /  11.6 °C 30.16 in /  1021.2 hPa SSE 4.6 mph /  7.4 km/h 4.9 mph /  7.9 km/h 71 % 0.00 in /  0 mm
01:24 62.2 °F /  16.8 °C 52.7 °F /  11.5 °C 30.16 in /  1021.2 hPa SSE 5.8 mph /  9.3 km/h 5.6 mph /  9 km/h 71 % 0.00 in /  0 mm
01:29 62.0 °F /  16.7 °C 52.5 °F /  11.4 °C 30.16 in /  1021.2 hPa SSE 6.9 mph /  11.1 km/h 5.2 mph /  8.4 km/h 71 % 0.00 in /  0 mm
01:34 61.8 °F /  16.6 °C 52.7 °F /  11.5 °C 30.16 in /  1021.2 hPa SSE 4.6 mph /  7.4 km/h 2.2 mph /  3.5 km/h 72 % 0.00 in /  0 mm
01:39 61.6 °F /  16.4 °C 52.5 °F /  11.4 °C 30.15 in /  1020.9 hPa SSE 6.9 mph /  11.1 km/h 5.3 mph /  8.5 km/h 72 % 0.00 in /  0 mm
01:44 61.4 °F /  16.3 °C 52.7 °F /  11.5 °C 30.15 in /  1020.9 hPa SSE 6.9 mph /  11.1 km/h 5.1 mph /  8.2 km/h 73 % 0.00 in /  0 mm
01:49 61.3 °F /  16.3 °C 52.6 °F /  11.4 °C 30.16 in /  1021.2 hPa SSE 4.6 mph /  7.4 km/h 3.3 mph /  5.3 km/h 73 % 0.00 in /  0 mm
01:54 61.2 °F /  16.2 °C 52.5 °F /  11.4 °C 30.15 in /  1020.9 hPa SSE 6.9 mph /  11.1 km/h 2.6 mph /  4.2 km/h 73 % 0.00 in /  0 mm
01:59 61.1 °F /  16.2 °C 52.4 °F /  11.3 °C 30.15 in /  1020.9 hPa SSE 6.9 mph /  11.1 km/h 4.5 mph /  7.2 km/h 73 % 0.00 in /  0 mm
02:04 61.1 °F /  16.2 °C 52.4 °F /  11.3 °C 30.15 in /  1020.9 hPa SSE 6.9 mph /  11.1 km/h 5.6 mph /  9 km/h 73 % 0.00 in /  0 mm
02:09 61.0 °F /  16.1 °C 52.3 °F /  11.3 °C 30.15 in /  1020.9 hPa SSE 5.0 mph /  8 km/h 4.5 mph /  7.2 km/h 73 % 0.00 in /  0 mm
02:14 61.0 °F /  16.1 °C 52.3 °F /  11.3 °C 30.15 in /  1020.9 hPa SSE 5.8 mph /  9.3 km/h 3.8 mph /  6.1 km/h 73 % 0.00 in /  0 mm
02:19 60.8 °F /  16 °C 52.5 °F /  11.4 °C 30.15 in /  1020.9 hPa SSE 4.6 mph /  7.4 km/h 2.0 mph /  3.2 km/h 74 % 0.00 in /  0 mm
02:24 60.5 °F /  15.8 °C 52.2 °F /  11.2 °C 30.15 in /  1020.9 hPa SSE 4.6 mph /  7.4 km/h 4.2 mph /  6.8 km/h 74 % 0.00 in /  0 mm
02:29 60.3 °F /  15.7 °C 52.3 °F /  11.3 °C 30.15 in /  1020.9 hPa SSE 5.8 mph /  9.3 km/h 3.4 mph /  5.5 km/h 75 % 0.00 in /  0 mm
02:34 59.9 °F /  15.5 °C 52.3 °F /  11.3 °C 30.14 in /  1020.5 hPa SSE 6.9 mph /  11.1 km/h 2.4 mph /  3.9 km/h 76 % 0.00 in /  0 mm
02:39 59.6 °F /  15.3 °C 52.4 °F /  11.3 °C 30.15 in /  1020.9 hPa SSE 4.6 mph /  7.4 km/h 4.6 mph /  7.4 km/h 77 % 0.00 in /  0 mm
02:44 59.3 °F /  15.2 °C 52.4 °F /  11.3 °C 30.14 in /  1020.5 hPa SSE 5.8 mph /  9.3 km/h 3.0 mph /  4.8 km/h 78 % 0.00 in /  0 mm
02:49 59.1 °F /  15.1 °C 52.6 °F /  11.4 °C 30.15 in /  1020.9 hPa SSE 4.6 mph /  7.4 km/h 4.1 mph /  6.6 km/h 79 % 0.00 in /  0 mm
02:54 58.9 °F /  14.9 °C 52.4 °F /  11.3 °C 30.15 in /  1020.9 hPa SSE 5.8 mph /  9.3 km/h 4.7 mph /  7.6 km/h 79 % 0.00 in /  0 mm
02:59 58.6 °F /  14.8 °C 52.4 °F /  11.3 °C 30.15 in /  1020.9 hPa SSE 6.9 mph /  11.1 km/h 2.6 mph /  4.2 km/h 80 % 0.00 in /  0 mm
03:04 58.5 °F /  14.7 °C 52.4 °F /  11.3 °C 30.15 in /  1020.9 hPa SSE 6.0 mph /  9.7 km/h 3.4 mph /  5.5 km/h 80 % 0.00 in /  0 mm
03:09 58.3 °F /  14.6 °C 52.5 °F /  11.4 °C 30.15 in /  1020.9 hPa SSE 4.6 mph /  7.4 km/h 3.4 mph /  5.5 km/h 81 % 0.00 in /  0 mm
03:14 58.2 °F /  14.6 °C 52.4 °F /  11.3 °C 30.15 in /  1020.9 hPa SSE 5.0 mph /  8 km/h 3.8 mph /  6.1 km/h 81 % 0.00 in /  0 mm
03:19 58.0 °F /  14.4 °C 52.2 °F /  11.2 °C 30.14 in /  1020.5 hPa SSE 4.6 mph /  7.4 km/h 3.2 mph /  5.1 km/h 81 % 0.00 in /  0 mm
03:24 58.0 °F /  14.4 °C 52.5 °F /  11.4 °C 30.14 in /  1020.5 hPa SSE 5.8 mph /  9.3 km/h 3.2 mph /  5.1 km/h 82 % 0.00 in /  0 mm
03:29 57.9 °F /  14.4 °C 52.4 °F /  11.3 °C 30.14 in /  1020.5 hPa SSE 4.6 mph /  7.4 km/h 1.3 mph /  2.1 km/h 82 % 0.00 in /  0 mm
03:34 57.7 °F /  14.3 °C 52.2 °F /  11.2 °C 30.14 in /  1020.5 hPa SSE 3.5 mph /  5.6 km/h 0.6 mph /  1 km/h 82 % 0.00 in /  0 mm
03:39 57.6 °F /  14.2 °C 52.1 °F /  11.2 °C 30.14 in /  1020.5 hPa SSE 2.0 mph /  3.2 km/h 1.6 mph /  2.6 km/h 82 % 0.00 in /  0 mm
03:44 57.4 °F /  14.1 °C 51.9 °F /  11.1 °C 30.14 in /  1020.5 hPa SSE 1.2 mph /  1.9 km/h 0.1 mph /  0.2 km/h 82 % 0.00 in /  0 mm
03:49 57.1 °F /  13.9 °C 51.7 °F /  10.9 °C 30.15 in /  1020.9 hPa SSE 2.3 mph /  3.7 km/h   82 % 0.00 in /  0 mm
03:54 56.8 °F /  13.8 °C 51.7 °F /  10.9 °C 30.14 in /  1020.5 hPa SSE 2.3 mph /  3.7 km/h 1.7 mph /  2.7 km/h 83 % 0.00 in /  0 mm
03:59 56.6 °F /  13.7 °C 51.5 °F /  10.8 °C 30.15 in /  1020.9 hPa SSE 3.5 mph /  5.6 km/h 1.5 mph /  2.4 km/h 83 % 0.00 in /  0 mm
04:04 56.5 °F /  13.6 °C 51.7 °F /  10.9 °C 30.15 in /  1020.9 hPa SSE 1.2 mph /  1.9 km/h 0.7 mph /  1.1 km/h 84 % 0.00 in /  0 mm
04:09 56.3 °F /  13.5 °C 51.5 °F /  10.8 °C 30.15 in /  1020.9 hPa SSE 1.2 mph /  1.9 km/h   84 % 0.00 in /  0 mm
04:14 56.2 °F /  13.4 °C 51.7 °F /  10.9 °C 30.15 in /  1020.9 hPa SSE 1.2 mph /  1.9 km/h   85 % 0.00 in /  0 mm
04:19 55.9 °F /  13.3 °C 51.1 °F /  10.6 °C 30.15 in /  1020.9 hPa Calm     84 % 0.00 in /  0 mm
04:24 55.6 °F /  13.1 °C 50.8 °F /  10.4 °C 30.15 in /  1020.9 hPa Calm     84 % 0.00 in /  0 mm
04:29 55.2 °F /  12.9 °C 50.4 °F /  10.2 °C 30.15 in /  1020.9 hPa Calm     84 % 0.00 in /  0 mm
04:34 54.8 °F /  12.7 °C 50.4 °F /  10.2 °C 30.15 in /  1020.9 hPa SSE 4.0 mph /  6.4 km/h 0.4 mph /  0.6 km/h 85 % 0.00 in /  0 mm
04:39 54.5 °F /  12.5 °C 50.1 °F /  10.1 °C 30.15 in /  1020.9 hPa Calm     85 % 0.00 in /  0 mm
04:44 54.3 °F /  12.4 °C 50.2 °F /  10.1 °C 30.15 in /  1020.9 hPa Calm     86 % 0.00 in /  0 mm
04:49 54.1 °F /  12.3 °C 50.0 °F /  10 °C 30.15 in /  1020.9 hPa SSE 2.0 mph /  3.2 km/h 1.1 mph /  1.8 km/h 86 % 0.00 in /  0 mm
04:54 53.7 °F /  12.1 °C 49.9 °F /  9.9 °C 30.15 in /  1020.9 hPa Calm     87 % 0.00 in /  0 mm
04:59 53.5 °F /  11.9 °C 49.7 °F /  9.8 °C 30.15 in /  1020.9 hPa Calm     87 % 0.00 in /  0 mm
05:04 53.4 °F /  11.9 °C 49.6 °F /  9.8 °C 30.15 in /  1020.9 hPa Calm     87 % 0.00 in /  0 mm
05:09 53.2 °F /  11.8 °C 49.4 °F /  9.7 °C 30.16 in /  1021.2 hPa Calm     87 % 0.00 in /  0 mm
05:14 53.1 °F /  11.7 °C 49.6 °F /  9.8 °C 30.16 in /  1021.2 hPa Calm     88 % 0.00 in /  0 mm
05:19 53.0 °F /  11.7 °C 49.5 °F /  9.7 °C 30.16 in /  1021.2 hPa Calm     88 % 0.00 in /  0 mm
05:24 52.9 °F /  11.6 °C 49.4 °F /  9.7 °C 30.16 in /  1021.2 hPa Calm     88 % 0.00 in /  0 mm
05:29 52.7 °F /  11.5 °C 49.2 °F /  9.6 °C 30.16 in /  1021.2 hPa Calm     88 % 0.00 in /  0 mm
05:34 52.7 °F /  11.5 °C 49.5 °F /  9.7 °C 30.16 in /  1021.2 hPa Calm     89 % 0.00 in /  0 mm
05:39 52.6 °F /  11.4 °C 49.4 °F /  9.7 °C 30.16 in /  1021.2 hPa Calm     89 % 0.00 in /  0 mm
05:44 52.5 °F /  11.4 °C 49.4 °F /  9.7 °C 30.16 in /  1021.2 hPa Calm     89 % 0.00 in /  0 mm
05:49 52.4 °F /  11.3 °C 49.3 °F /  9.6 °C 30.16 in /  1021.2 hPa Calm     89 % 0.00 in /  0 mm
05:54 52.3 °F /  11.3 °C 49.5 °F /  9.7 °C 30.17 in /  1021.6 hPa Calm     90 % 0.00 in /  0 mm
05:59 52.3 °F /  11.3 °C 49.5 °F /  9.7 °C 30.17 in /  1021.6 hPa Calm     90 % 0.00 in /  0 mm
06:04 52.3 °F /  11.3 °C 49.5 °F /  9.7 °C 30.17 in /  1021.6 hPa Calm     90 % 0.00 in /  0 mm
06:09 52.4 °F /  11.3 °C 49.8 °F /  9.9 °C 30.17 in /  1021.6 hPa SSE 3.5 mph /  5.6 km/h 1.2 mph /  1.9 km/h 91 % 0.00 in /  0 mm
06:14 52.5 °F /  11.4 °C 49.9 °F /  9.9 °C 30.17 in /  1021.6 hPa SSE 2.3 mph /  3.7 km/h   91 % 0.00 in /  0 mm
06:19 52.5 °F /  11.4 °C 49.9 °F /  9.9 °C 30.17 in /  1021.6 hPa Calm     91 % 0.00 in /  0 mm
06:24 52.6 °F /  11.4 °C 50.0 °F /  10 °C 30.18 in /  1021.9 hPa Calm     91 % 0.00 in /  0 mm
06:29 52.5 °F /  11.4 °C 49.9 °F /  9.9 °C 30.18 in /  1021.9 hPa SSE 2.3 mph /  3.7 km/h 2.4 mph /  3.9 km/h 91 % 0.00 in /  0 mm
06:34 52.5 °F /  11.4 °C 49.9 °F /  9.9 °C 30.18 in /  1021.9 hPa SSE 5.0 mph /  8 km/h 3.6 mph /  5.8 km/h 91 % 0.00 in /  0 mm
06:39 52.6 °F /  11.4 °C 50.0 °F /  10 °C 30.18 in /  1021.9 hPa SSE 2.3 mph /  3.7 km/h 0.8 mph /  1.3 km/h 91 % 0.00 in /  0 mm
06:44 52.4 °F /  11.3 °C 49.8 °F /  9.9 °C 30.18 in /  1021.9 hPa Calm     91 % 0.00 in /  0 mm
06:49 52.3 °F /  11.3 °C 49.8 °F /  9.9 °C 30.18 in /  1021.9 hPa Calm     91 % 0.00 in /  0 mm
06:54 52.2 °F /  11.2 °C 49.7 °F /  9.8 °C 30.18 in /  1021.9 hPa Calm     91 % 0.00 in /  0 mm
06:59 52.2 °F /  11.2 °C 49.7 °F /  9.8 °C 30.19 in /  1022.2 hPa Calm     91 % 0.00 in /  0 mm
07:04 52.2 °F /  11.2 °C 49.7 °F /  9.8 °C 30.19 in /  1022.2 hPa Calm     91 % 0.00 in /  0 mm
07:09 52.0 °F /  11.1 °C 49.5 °F /  9.7 °C 30.19 in /  1022.2 hPa Calm     91 % 0.00 in /  0 mm
07:14 51.8 °F /  11 °C 49.3 °F /  9.6 °C 30.19 in /  1022.2 hPa Calm     91 % 0.00 in /  0 mm
07:19 51.7 °F /  10.9 °C 49.2 °F /  9.6 °C 30.20 in /  1022.6 hPa Calm     91 % 0.00 in /  0 mm
07:24 51.8 °F /  11 °C 49.3 °F /  9.6 °C 30.20 in /  1022.6 hPa Calm     91 % 0.00 in /  0 mm
07:29 51.8 °F /  11 °C 49.3 °F /  9.6 °C 30.20 in /  1022.6 hPa Calm     91 % 0.00 in /  0 mm
07:34 51.8 °F /  11 °C 49.3 °F /  9.6 °C 30.21 in /  1022.9 hPa Calm     91 % 0.00 in /  0 mm
07:39 51.8 °F /  11 °C 49.5 °F /  9.7 °C 30.21 in /  1022.9 hPa Calm     92 % 0.00 in /  0 mm
07:44 52.0 °F /  11.1 °C 49.7 °F /  9.8 °C 30.21 in /  1022.9 hPa Calm     92 % 0.00 in /  0 mm
07:49 52.2 °F /  11.2 °C 49.9 °F /  9.9 °C 30.21 in /  1022.9 hPa Calm     92 % 0.00 in /  0 mm
07:54 52.5 °F /  11.4 °C 50.2 °F /  10.1 °C 30.21 in /  1022.9 hPa Calm     92 % 0.00 in /  0 mm
07:59 53.1 °F /  11.7 °C 51.1 °F /  10.6 °C 30.21 in /  1022.9 hPa Calm     93 % 0.00 in /  0 mm
08:04 53.6 °F /  12 °C 51.6 °F /  10.9 °C 30.21 in /  1022.9 hPa Calm     93 % 0.00 in /  0 mm
08:09 54.2 °F /  12.3 °C 52.2 °F /  11.2 °C 30.22 in /  1023.2 hPa SSE 2.0 mph /  3.2 km/h 0.4 mph /  0.6 km/h 93 % 0.00 in /  0 mm
08:14 54.8 °F /  12.7 °C 52.5 °F /  11.4 °C 30.21 in /  1022.9 hPa SSE 4.0 mph /  6.4 km/h 2.9 mph /  4.7 km/h 92 % 0.00 in /  0 mm
08:19 55.4 °F /  13 °C 53.1 °F /  11.7 °C 30.22 in /  1023.2 hPa SSE 4.0 mph /  6.4 km/h 1.9 mph /  3.1 km/h 92 % 0.00 in /  0 mm
08:24 55.8 °F /  13.2 °C 53.2 °F /  11.8 °C 30.22 in /  1023.2 hPa SSE 3.5 mph /  5.6 km/h 2.3 mph /  3.7 km/h 91 % 0.00 in /  0 mm
08:29 56.6 °F /  13.7 °C 53.7 °F /  12.1 °C 30.22 in /  1023.2 hPa SSE 3.5 mph /  5.6 km/h 1.5 mph /  2.4 km/h 90 % 0.00 in /  0 mm
08:34 57.4 °F /  14.1 °C 54.2 °F /  12.3 °C 30.22 in /  1023.2 hPa SSE 2.3 mph /  3.7 km/h 1.6 mph /  2.6 km/h 89 % 0.00 in /  0 mm
08:39 58.5 °F /  14.7 °C 54.6 °F /  12.6 °C 30.22 in /  1023.2 hPa SSE 4.6 mph /  7.4 km/h 3.8 mph /  6.1 km/h 87 % 0.00 in /  0 mm
08:44 60.1 °F /  15.6 °C 54.6 °F /  12.6 °C 30.22 in /  1023.2 hPa SSE 4.0 mph /  6.4 km/h 3.5 mph /  5.6 km/h 82 % 0.00 in /  0 mm
08:49 61.8 °F /  16.6 °C 54.2 °F /  12.3 °C 30.23 in /  1023.6 hPa SE 6.9 mph /  11.1 km/h 5.4 mph /  8.7 km/h 76 % 0.00 in /  0 mm
08:54 63.5 °F /  17.5 °C 53.5 °F /  11.9 °C 30.23 in /  1023.6 hPa ESE 8.1 mph /  13 km/h 5.9 mph /  9.5 km/h 70 % 0.00 in /  0 mm
08:59 65.0 °F /  18.3 °C 53.4 °F /  11.9 °C 30.23 in /  1023.6 hPa ESE 5.8 mph /  9.3 km/h 5.8 mph /  9.3 km/h 66 % 0.00 in /  0 mm
09:04 66.3 °F /  19.1 °C 53.8 °F /  12.1 °C 30.23 in /  1023.6 hPa ESE 5.8 mph /  9.3 km/h 2.6 mph /  4.2 km/h 64 % 0.00 in /  0 mm
09:09 67.7 °F /  19.8 °C 53.3 °F /  11.8 °C 30.23 in /  1023.6 hPa East 5.8 mph /  9.3 km/h 6.5 mph /  10.5 km/h 60 % 0.00 in /  0 mm
09:14 69.2 °F /  20.7 °C 50.8 °F /  10.4 °C 30.23 in /  1023.6 hPa NNE 16.1 mph /  25.9 km/h 4.8 mph /  7.7 km/h 52 % 0.00 in /  0 mm
09:19 70.6 °F /  21.4 °C 50.0 °F /  10 °C 30.23 in /  1023.6 hPa NE 11.5 mph /  18.5 km/h 8.1 mph /  13 km/h 48 % 0.00 in /  0 mm
09:24 71.3 °F /  21.8 °C 50.0 °F /  10 °C 30.23 in /  1023.6 hPa NNE 10.4 mph /  16.7 km/h 4.8 mph /  7.7 km/h 47 % 0.00 in /  0 mm
09:29 72.0 °F /  22.2 °C 49.5 °F /  9.7 °C 30.23 in /  1023.6 hPa NNE 12.7 mph /  20.4 km/h 7.3 mph /  11.7 km/h 45 % 0.00 in /  0 mm
09:34 72.5 °F /  22.5 °C 49.9 °F /  9.9 °C 30.23 in /  1023.6 hPa NNE 12.7 mph /  20.4 km/h 4.7 mph /  7.6 km/h 45 % 0.00 in /  0 mm
09:39 72.9 °F /  22.7 °C 48.5 °F /  9.2 °C 30.23 in /  1023.6 hPa NNE 16.1 mph /  25.9 km/h 10.6 mph /  17.1 km/h 42 % 0.00 in /  0 mm
09:44 73.1 °F /  22.8 °C 49.3 °F /  9.6 °C 30.23 in /  1023.6 hPa NNE 13.8 mph /  22.2 km/h 10.7 mph /  17.2 km/h 43 % 0.00 in /  0 mm
09:49 73.3 °F /  22.9 °C 48.8 °F /  9.3 °C 30.23 in /  1023.6 hPa NNE 15.0 mph /  24.1 km/h 12.0 mph /  19.3 km/h 42 % 0.00 in /  0 mm
09:54 73.7 °F /  23.2 °C 49.2 °F /  9.6 °C 30.23 in /  1023.6 hPa NNE 16.1 mph /  25.9 km/h 11.1 mph /  17.9 km/h 42 % 0.00 in /  0 mm
09:59 73.9 °F /  23.3 °C 48.7 °F /  9.3 °C 30.23 in /  1023.6 hPa North 17.3 mph /  27.8 km/h 10.0 mph /  16.1 km/h 41 % 0.00 in /  0 mm
10:04 74.2 °F /  23.4 °C 49.0 °F /  9.4 °C 30.23 in /  1023.6 hPa North 19.0 mph /  30.6 km/h 12.6 mph /  20.3 km/h 41 % 0.00 in /  0 mm
10:09 74.2 °F /  23.4 °C 49.0 °F /  9.4 °C 30.23 in /  1023.6 hPa North 16.1 mph /  25.9 km/h 10.5 mph /  16.9 km/h 41 % 0.00 in /  0 mm
10:14 74.6 °F /  23.7 °C 49.3 °F /  9.6 °C 30.23 in /  1023.6 hPa NNE 13.8 mph /  22.2 km/h 12.4 mph /  20 km/h 41 % 0.00 in /  0 mm
10:19 74.7 °F /  23.7 °C 49.4 °F /  9.7 °C 30.23 in /  1023.6 hPa NNE 19.0 mph /  30.6 km/h 14.0 mph /  22.5 km/h 41 % 0.00 in /  0 mm
10:24 74.7 °F /  23.7 °C 49.4 °F /  9.7 °C 30.23 in /  1023.6 hPa NNE 16.1 mph /  25.9 km/h 7.5 mph /  12.1 km/h 41 % 0.00 in /  0 mm
10:29 74.9 °F /  23.8 °C 49.6 °F /  9.8 °C 30.23 in /  1023.6 hPa NE 16.1 mph /  25.9 km/h 8.6 mph /  13.8 km/h 41 % 0.00 in /  0 mm
10:34 75.2 °F /  24 °C 49.9 °F /  9.9 °C 30.23 in /  1023.6 hPa NE 13.8 mph /  22.2 km/h 9.3 mph /  15 km/h 41 % 0.00 in /  0 mm
10:39 75.6 °F /  24.2 °C 50.2 °F /  10.1 °C 30.23 in /  1023.6 hPa North 13.8 mph /  22.2 km/h 8.1 mph /  13 km/h 41 % 0.00 in /  0 mm
10:44 76.3 °F /  24.6 °C 50.2 °F /  10.1 °C 30.23 in /  1023.6 hPa NNE 13.8 mph /  22.2 km/h 8.9 mph /  14.3 km/h 40 % 0.00 in /  0 mm
10:49 76.3 °F /  24.6 °C 50.2 °F /  10.1 °C 30.23 in /  1023.6 hPa NNE 12.7 mph /  20.4 km/h 11.4 mph /  18.3 km/h 40 % 0.00 in /  0 mm
10:54 76.1 °F /  24.5 °C 49.3 °F /  9.6 °C 30.23 in /  1023.6 hPa NE 13.8 mph /  22.2 km/h 9.3 mph /  15 km/h 39 % 0.00 in /  0 mm
10:59 76.4 °F /  24.7 °C 50.3 °F /  10.2 °C 30.23 in /  1023.6 hPa NNE 17.3 mph /  27.8 km/h 5.5 mph /  8.9 km/h 40 % 0.00 in /  0 mm
11:04 77.0 °F /  25 °C 50.8 °F /  10.4 °C 30.23 in /  1023.6 hPa North 19.6 mph /  31.5 km/h 10.8 mph /  17.4 km/h 40 % 0.00 in /  0 mm
11:09 77.5 °F /  25.3 °C 50.6 °F /  10.3 °C 30.23 in /  1023.6 hPa North 10.0 mph /  16.1 km/h 8.2 mph /  13.2 km/h 39 % 0.00 in /  0 mm
11:14 78.1 °F /  25.6 °C 51.1 °F /  10.6 °C 30.22 in /  1023.2 hPa North 11.5 mph /  18.5 km/h 7.8 mph /  12.6 km/h 39 % 0.00 in /  0 mm
11:19 79.0 °F /  26.1 °C 51.2 °F /  10.7 °C 30.22 in /  1023.2 hPa North 12.0 mph /  19.3 km/h 7.3 mph /  11.7 km/h 38 % 0.00 in /  0 mm
11:24 78.9 °F /  26.1 °C 51.1 °F /  10.6 °C 30.22 in /  1023.2 hPa NNW 12.0 mph /  19.3 km/h 9.9 mph /  15.9 km/h 38 % 0.00 in /  0 mm
11:29 78.6 °F /  25.9 °C 50.9 °F /  10.5 °C 30.22 in /  1023.2 hPa NNE 12.7 mph /  20.4 km/h 8.1 mph /  13 km/h 38 % 0.00 in /  0 mm
11:34 79.0 °F /  26.1 °C 51.9 °F /  11.1 °C 30.22 in /  1023.2 hPa North 11.5 mph /  18.5 km/h 7.0 mph /  11.3 km/h 39 % 0.00 in /  0 mm
11:39 79.9 °F /  26.6 °C 51.3 °F /  10.7 °C 30.22 in /  1023.2 hPa North 13.8 mph /  22.2 km/h 7.7 mph /  12.4 km/h 37 % 0.00 in /  0 mm
11:44 80.1 °F /  26.7 °C 51.5 °F /  10.8 °C 30.22 in /  1023.2 hPa NNE 16.0 mph /  25.7 km/h 8.9 mph /  14.3 km/h 37 % 0.00 in /  0 mm
11:49 79.8 °F /  26.6 °C 51.2 °F /  10.7 °C 30.22 in /  1023.2 hPa NNE 15.0 mph /  24.1 km/h 7.7 mph /  12.4 km/h 37 % 0.00 in /  0 mm
11:54 80.2 °F /  26.8 °C 50.8 °F /  10.4 °C 30.22 in /  1023.2 hPa NNE 12.7 mph /  20.4 km/h 8.9 mph /  14.3 km/h 36 % 0.00 in /  0 mm
11:59 80.3 °F /  26.8 °C 50.9 °F /  10.5 °C 30.21 in /  1022.9 hPa North 9.2 mph /  14.8 km/h 8.5 mph /  13.7 km/h 36 % 0.00 in /  0 mm
12:04 80.5 °F /  26.9 °C 51.1 °F /  10.6 °C 30.21 in /  1022.9 hPa NNE 11.0 mph /  17.7 km/h 10.1 mph /  16.3 km/h 36 % 0.00 in /  0 mm
12:09 80.7 °F /  27.1 °C 51.3 °F /  10.7 °C 30.21 in /  1022.9 hPa NNE 11.5 mph /  18.5 km/h 7.3 mph /  11.7 km/h 36 % 0.00 in /  0 mm
12:14 81.2 °F /  27.3 °C 50.2 °F /  10.1 °C 30.21 in /  1022.9 hPa NNE 12.7 mph /  20.4 km/h 10.6 mph /  17.1 km/h 34 % 0.00 in /  0 mm
12:19 81.3 °F /  27.4 °C 51.0 °F /  10.6 °C 30.21 in /  1022.9 hPa NE 10.4 mph /  16.7 km/h 6.5 mph /  10.5 km/h 35 % 0.00 in /  0 mm
12:24 81.4 °F /  27.4 °C 50.3 °F /  10.2 °C 30.21 in /  1022.9 hPa ENE 18.4 mph /  29.6 km/h 10.4 mph /  16.7 km/h 34 % 0.00 in /  0 mm
12:29 81.3 °F /  27.4 °C 51.0 °F /  10.6 °C 30.21 in /  1022.9 hPa NNE 18.0 mph /  29 km/h 9.7 mph /  15.6 km/h 35 % 0.00 in /  0 mm
12:34 81.9 °F /  27.7 °C 50.8 °F /  10.4 °C 30.21 in /  1022.9 hPa North 11.5 mph /  18.5 km/h 10.1 mph /  16.3 km/h 34 % 0.00 in /  0 mm
12:39 82.3 °F /  27.9 °C 50.3 °F /  10.2 °C 30.20 in /  1022.6 hPa North 18.4 mph /  29.6 km/h 9.6 mph /  15.4 km/h 33 % 0.00 in /  0 mm
12:44 82.5 °F /  28.1 °C 50.5 °F /  10.3 °C 30.20 in /  1022.6 hPa North 13.8 mph /  22.2 km/h 7.6 mph /  12.2 km/h 33 % 0.00 in /  0 mm
12:49 82.8 °F /  28.2 °C 50.8 °F /  10.4 °C 30.20 in /  1022.6 hPa NNE 15.0 mph /  24.1 km/h 4.5 mph /  7.2 km/h 33 % 0.00 in /  0 mm
12:54 83.4 °F /  28.6 °C 50.4 °F /  10.2 °C 30.20 in /  1022.6 hPa North 12.7 mph /  20.4 km/h 9.6 mph /  15.4 km/h 32 % 0.00 in /  0 mm
12:59 83.0 °F /  28.3 °C 50.1 °F /  10.1 °C 30.20 in /  1022.6 hPa NNE 16.0 mph /  25.7 km/h 9.3 mph /  15 km/h 32 % 0.00 in /  0 mm
13:04 83.2 °F /  28.4 °C 50.3 °F /  10.2 °C 30.20 in /  1022.6 hPa NNW 13.8 mph /  22.2 km/h 7.6 mph /  12.2 km/h 32 % 0.00 in /  0 mm
13:09 83.3 °F /  28.5 °C 50.4 °F /  10.2 °C 30.19 in /  1022.2 hPa NNW 11.5 mph /  18.5 km/h 9.3 mph /  15 km/h 32 % 0.00 in /  0 mm
13:14 83.2 °F /  28.4 °C 50.3 °F /  10.2 °C 30.19 in /  1022.2 hPa NNE 13.8 mph /  22.2 km/h 9.9 mph /  15.9 km/h 32 % 0.00 in /  0 mm
13:19 83.7 °F /  28.7 °C 50.7 °F /  10.4 °C 30.19 in /  1022.2 hPa North 12.0 mph /  19.3 km/h 13.1 mph /  21.1 km/h 32 % 0.00 in /  0 mm
13:24 84.1 °F /  28.9 °C 50.2 °F /  10.1 °C 30.19 in /  1022.2 hPa North 8.1 mph /  13 km/h 5.7 mph /  9.2 km/h 31 % 0.00 in /  0 mm
13:29 84.7 °F /  29.3 °C 49.8 °F /  9.9 °C 30.19 in /  1022.2 hPa NE 9.2 mph /  14.8 km/h 6.8 mph /  10.9 km/h 30 % 0.00 in /  0 mm
13:34 85.1 °F /  29.5 °C 50.2 °F /  10.1 °C 30.19 in /  1022.2 hPa North 6.9 mph /  11.1 km/h 6.5 mph /  10.5 km/h 30 % 0.00 in /  0 mm
13:39 85.5 °F /  29.7 °C 50.5 °F /  10.3 °C 30.18 in /  1021.9 hPa NNE 11.5 mph /  18.5 km/h 9.1 mph /  14.6 km/h 30 % 0.00 in /  0 mm
13:44 85.4 °F /  29.7 °C 51.3 °F /  10.7 °C 30.18 in /  1021.9 hPa NE 12.7 mph /  20.4 km/h 9.8 mph /  15.8 km/h 31 % 0.00 in /  0 mm
13:49 85.3 °F /  29.6 °C 50.4 °F /  10.2 °C 30.18 in /  1021.9 hPa North 15.0 mph /  24.1 km/h 6.2 mph /  10 km/h 30 % 0.00 in /  0 mm
13:54 85.4 °F /  29.7 °C 49.5 °F /  9.7 °C 30.18 in /  1021.9 hPa NNW 13.8 mph /  22.2 km/h 9.9 mph /  15.9 km/h 29 % 0.00 in /  0 mm
13:59 85.3 °F /  29.6 °C 50.4 °F /  10.2 °C 30.18 in /  1021.9 hPa NNE 8.1 mph /  13 km/h 8.9 mph /  14.3 km/h 30 % 0.00 in /  0 mm
14:04 85.4 °F /  29.7 °C 49.5 °F /  9.7 °C 30.18 in /  1021.9 hPa NNW 13.8 mph /  22.2 km/h 7.6 mph /  12.2 km/h 29 % 0.00 in /  0 mm
14:09 85.4 °F /  29.7 °C 50.4 °F /  10.2 °C 30.18 in /  1021.9 hPa North 12.7 mph /  20.4 km/h 6.4 mph /  10.3 km/h 30 % 0.00 in /  0 mm
14:14 85.6 °F /  29.8 °C 48.8 °F /  9.3 °C 30.18 in /  1021.9 hPa NNW 15.0 mph /  24.1 km/h 9.0 mph /  14.5 km/h 28 % 0.00 in /  0 mm
Ararat Weather
Compliments of Weather Underground - 1.5 mb
Click here to send mail.


ABOUT

Live weather data from Ararat, Victoria, Australia, 3377
Data uploaded from Cumulus every 5 minutes to Weather Underground.
This site then downloads the raw data for formatting and display.
Metric and imperial data can be displayed. Graphs and historical data available.
Includes Sun and Moon times and rain image live from BOM.

Check out Ararat Weather on Facebook, Twitter and Google +

Help support ongoing costs by checking out the ads





Follow @AraratWeather